Snel-info
Kleurcode:
Oranje
Jets mogen NIET vliegen, anderen wel.
Uiterste voorzichtigheid geboden!
Laatste update: 24/05/2017
Kleurcode informatie

Grasmaaien:

Geen maaibeurten gepland.

Volgende vliegdagen:

  • Vandaag vr 26 mei :
    Brugdag
  • ma 5 juni : Pinkstermaandag
  • vr 21 juli : Nationale feestdag
Alle extra vliegdagen

Weersituatie op PMF:

05_Knuffelvliegen_13sep2015_Dirk_106.JPG

Huidige weersituatie

Huidig weerbeeld in Kleine Brogel, Belgium
Huidige wind in Kleine Brogel, Belgium

Dit is het bericht voor Kleine Brogel, Belgium en werd 27 minuten geleden gemaakt.
De wind waaide met een snelheid van 3.6 meter per seconde (13 km/h) uit het oosten (090°).
De temperatuur was 22 °C. De gevoelstemperatuur was 25 °C. De atmosferische druk was 1022 hPa. De relative luchtvochtigheid was 53.0%. Het algemene zicht was meer dan 10 kilometer.

De onbewerkte METAR gegevens waarop dit bericht is gebaseerd zijn:
EBBL 260855Z AUTO 09007KT 9999 NCD 22/12 Q1022 BLU


Opmerking:
De wind blijkt op PMF meestal iets krachtiger te waaien dan op Kleine Brogel. De windrichting klopt dan weer wel.




KMI

De weersvoorspellingen van het KMI vind je via deze link.


Buienradar

Op www.buienradar.nl kun je zelf zien waar het nu en de komende uren regent.